createdAt,value
2023-01-25T00:01:46.492Z,92.77
2023-01-25T00:04:21.195Z,92.83
2023-01-25T00:06:54.400Z,92.73
2023-01-25T00:09:28.316Z,92.66
2023-01-25T00:12:00.993Z,92.68
2023-01-25T00:14:35.422Z,92.64
2023-01-25T00:17:08.490Z,92.58
2023-01-25T00:19:41.913Z,92.57
2023-01-25T00:22:14.782Z,92.57
2023-01-25T00:24:48.283Z,92.54
2023-01-25T00:27:21.227Z,92.52
2023-01-25T00:29:54.154Z,92.47
2023-01-25T00:32:37.553Z,92.43
2023-01-25T00:35:13.667Z,92.46
2023-01-25T00:37:50.797Z,92.37
2023-01-25T00:40:24.811Z,92.40
2023-01-25T00:42:57.728Z,92.42
2023-01-25T00:45:30.547Z,92.43
2023-01-25T00:48:04.355Z,92.44
2023-01-25T00:50:39.416Z,92.42
2023-01-25T00:53:12.322Z,92.43
2023-01-25T00:55:55.883Z,92.47
2023-01-25T00:58:30.299Z,92.44
2023-01-25T01:01:03.156Z,92.41
2023-01-25T01:03:36.108Z,92.38
2023-01-25T01:06:14.257Z,92.36
2023-01-25T01:08:48.160Z,92.21
2023-01-25T01:11:21.188Z,92.13
2023-01-25T01:13:54.245Z,91.94
2023-01-25T01:16:29.289Z,91.92
2023-01-25T01:19:02.257Z,91.84
2023-01-25T01:21:35.000Z,91.78
2023-01-25T01:24:08.411Z,91.70
2023-01-25T01:26:42.214Z,91.66
2023-01-25T01:29:15.130Z,91.65
2023-01-25T01:31:50.163Z,91.58
2023-01-25T01:34:25.232Z,91.53
2023-01-25T01:36:58.673Z,91.46
2023-01-25T01:39:31.901Z,91.32
2023-01-25T01:42:05.368Z,91.21
2023-01-25T01:44:56.346Z,91.08
2023-01-25T01:47:44.790Z,91.12
2023-01-25T01:50:23.392Z,91.09
2023-01-25T01:52:56.618Z,90.99
2023-01-25T01:55:29.498Z,91.02
2023-01-25T01:58:03.974Z,90.98
2023-01-25T02:00:40.325Z,90.97
2023-01-25T02:03:14.399Z,90.96
2023-01-25T02:05:49.451Z,90.88
2023-01-25T02:08:22.360Z,90.82
2023-01-25T02:10:55.413Z,90.77
2023-01-25T02:13:28.614Z,90.83
2023-01-25T02:16:01.549Z,90.80
2023-01-25T02:18:34.553Z,90.73
2023-01-25T02:21:08.580Z,90.55
2023-01-25T02:23:54.804Z,90.51
2023-01-25T02:26:27.748Z,90.52
2023-01-25T02:29:04.656Z,90.45
2023-01-25T02:31:38.853Z,90.41
2023-01-25T02:34:11.810Z,90.28
2023-01-25T02:36:45.571Z,90.24
2023-01-25T02:39:20.708Z,90.18
2023-01-25T02:41:55.087Z,90.13
2023-01-25T02:44:34.475Z,90.17
2023-01-25T02:47:08.953Z,90.23
2023-01-25T02:49:42.503Z,90.17
2023-01-25T02:52:15.498Z,90.18
2023-01-25T02:54:48.335Z,90.12
2023-01-25T02:57:23.178Z,90.10
2023-01-25T02:59:56.042Z,90.16
2023-01-25T03:02:29.392Z,90.13
2023-01-25T03:05:02.081Z,90.10
2023-01-25T03:07:35.422Z,90.14
2023-01-25T03:10:09.712Z,90.09
2023-01-25T03:12:42.733Z,90.06
2023-01-25T03:15:16.141Z,89.83
2023-01-25T03:17:50.215Z,89.75
2023-01-25T03:20:24.471Z,89.81
2023-01-25T03:22:58.109Z,89.84
2023-01-25T03:25:31.681Z,89.85
2023-01-25T03:28:06.257Z,89.87
2023-01-25T03:30:39.857Z,89.98
2023-01-25T03:33:12.999Z,89.96
2023-01-25T03:35:46.075Z,90.01
2023-01-25T03:38:20.999Z,90.09
2023-01-25T03:40:53.133Z,90.16
2023-01-25T03:43:27.587Z,90.14
2023-01-25T03:46:03.341Z,90.22
2023-01-25T03:48:36.614Z,90.26
2023-01-25T03:51:10.689Z,90.35
2023-01-25T03:53:43.898Z,90.32
2023-01-25T03:56:20.009Z,90.32
2023-01-25T03:58:57.711Z,90.37
2023-01-25T04:01:31.851Z,90.33
2023-01-25T04:04:05.234Z,90.20
2023-01-25T04:06:38.255Z,90.40
2023-01-25T04:09:11.422Z,90.47
2023-01-25T04:11:45.932Z,90.16
2023-01-25T04:14:31.857Z,90.05
2023-01-25T04:16:56.732Z,89.78
2023-01-25T04:19:34.353Z,89.62
2023-01-25T04:22:09.268Z,89.45
2023-01-25T04:24:43.268Z,89.40
2023-01-25T04:27:16.051Z,89.37
2023-01-25T04:29:53.310Z,89.42
2023-01-25T04:32:26.544Z,89.34
2023-01-25T04:35:00.219Z,89.29
2023-01-25T04:37:34.123Z,89.23
2023-01-25T04:40:08.749Z,89.24
2023-01-25T04:42:43.667Z,89.16
2023-01-25T04:45:16.880Z,89.12
2023-01-25T04:47:50.195Z,89.24
2023-01-25T04:50:23.060Z,89.24
2023-01-25T04:52:56.072Z,89.20
2023-01-25T04:55:30.618Z,89.03
2023-01-25T04:58:05.643Z,89.26
2023-01-25T05:00:38.831Z,89.18
2023-01-25T05:03:11.950Z,89.15
2023-01-25T05:05:50.171Z,89.07
2023-01-25T05:08:26.539Z,89.06
2023-01-25T05:11:01.206Z,89.08
2023-01-25T05:13:45.481Z,89.16
2023-01-25T05:16:25.922Z,89.31
2023-01-25T05:18:59.014Z,89.48
2023-01-25T05:21:51.671Z,89.58
2023-01-25T05:24:24.698Z,89.61
2023-01-25T05:27:01.815Z,89.70
2023-01-25T05:29:40.299Z,89.73
2023-01-25T05:32:23.912Z,89.75
2023-01-25T05:34:56.672Z,89.77
2023-01-25T05:37:30.099Z,89.60
2023-01-25T05:40:11.765Z,89.61
2023-01-25T05:42:44.976Z,89.55
2023-01-25T05:45:22.215Z,89.53
2023-01-25T05:47:57.369Z,89.43
2023-01-25T05:50:30.471Z,89.37
2023-01-25T05:53:05.002Z,89.20
2023-01-25T05:55:38.932Z,89.02
2023-01-25T05:58:16.360Z,88.97
2023-01-25T06:00:49.296Z,88.94
2023-01-25T06:03:24.393Z,88.93
2023-01-25T06:06:03.132Z,88.89
2023-01-25T06:08:38.185Z,88.92
2023-01-25T06:11:14.568Z,89.00
2023-01-25T06:13:50.172Z,88.96
2023-01-25T06:16:23.433Z,88.81
2023-01-25T06:19:15.687Z,88.70
2023-01-25T06:21:56.278Z,88.46
2023-01-25T06:24:29.394Z,88.47
2023-01-25T06:27:02.415Z,88.60
2023-01-25T06:29:35.321Z,88.70
2023-01-25T06:32:08.353Z,88.76
2023-01-25T06:34:41.989Z,88.90
2023-01-25T06:37:17.326Z,89.00
2023-01-25T06:39:50.469Z,89.14
2023-01-25T06:42:25.450Z,89.59
2023-01-25T06:44:58.868Z,89.64
2023-01-25T06:47:32.217Z,89.92
2023-01-25T06:50:05.597Z,89.91
2023-01-25T06:52:38.579Z,89.98
2023-01-25T06:55:13.398Z,90.15
2023-01-25T06:57:46.730Z,90.14
2023-01-25T07:00:20.374Z,89.95
2023-01-25T07:02:53.207Z,89.91
2023-01-25T07:05:26.752Z,89.93
2023-01-25T07:07:59.912Z,89.85
2023-01-25T07:10:33.912Z,89.88
2023-01-25T07:13:06.880Z,90.25
2023-01-25T07:15:39.858Z,90.41
2023-01-25T07:18:16.499Z,90.86
2023-01-25T07:20:47.503Z,92.01
2023-01-25T07:23:21.755Z,93.07
2023-01-25T07:25:54.414Z,93.59
2023-01-25T07:28:27.578Z,94.18
2023-01-25T07:31:07.983Z,94.44
2023-01-25T07:33:40.850Z,94.57
2023-01-25T07:36:14.036Z,94.60
2023-01-25T07:38:47.320Z,94.63
2023-01-25T07:41:20.349Z,94.53
2023-01-25T07:43:53.933Z,94.72
2023-01-25T07:46:43.608Z,94.90
2023-01-25T07:49:16.381Z,94.93
2023-01-25T07:51:50.288Z,94.79
2023-01-25T07:54:23.012Z,94.71
2023-01-25T07:56:56.148Z,94.76
2023-01-25T07:59:31.532Z,94.83
2023-01-25T08:02:04.449Z,94.61
2023-01-25T08:04:37.557Z,94.40
2023-01-25T08:07:10.741Z,94.32
2023-01-25T08:09:44.626Z,94.40
2023-01-25T08:12:18.912Z,94.56
2023-01-25T08:14:51.093Z,94.63
2023-01-25T08:17:23.931Z,94.43
2023-01-25T08:19:57.185Z,94.38
2023-01-25T08:22:30.492Z,94.11
2023-01-25T08:25:03.906Z,93.94
2023-01-25T08:27:37.184Z,93.81
2023-01-25T08:30:12.941Z,93.77
2023-01-25T08:32:45.990Z,93.73
2023-01-25T08:35:18.708Z,93.40
2023-01-25T08:37:51.780Z,93.19
2023-01-25T08:40:24.611Z,93.27
2023-01-25T08:42:58.522Z,93.12
2023-01-25T08:45:33.280Z,93.16
2023-01-25T08:48:06.581Z,93.16
2023-01-25T08:50:40.044Z,92.55
2023-01-25T08:53:12.768Z,92.52
2023-01-25T08:55:47.063Z,92.68
2023-01-25T08:58:22.589Z,92.70
2023-01-25T09:00:55.360Z,92.06
2023-01-25T09:03:28.589Z,91.97
2023-01-25T09:06:01.451Z,91.92
2023-01-25T09:08:35.293Z,92.06
2023-01-25T09:11:17.756Z,92.06
2023-01-25T09:13:51.617Z,91.73
2023-01-25T09:16:30.337Z,91.34
2023-01-25T09:19:05.755Z,90.89
2023-01-25T09:21:38.943Z,90.61
2023-01-25T09:24:11.845Z,90.58
2023-01-25T09:26:55.722Z,90.53
2023-01-25T09:29:19.874Z,90.29
2023-01-25T09:31:53.056Z,89.95
2023-01-25T09:34:38.946Z,90.07
2023-01-25T09:37:11.784Z,90.30
2023-01-25T09:39:45.202Z,90.43
2023-01-25T09:43:01.870Z,90.60
2023-01-25T09:45:38.630Z,90.76
2023-01-25T09:48:34.617Z,90.91
2023-01-25T09:51:24.109Z,90.97
2023-01-25T09:53:58.873Z,91.10
2023-01-25T09:56:39.448Z,91.17
2023-01-25T09:59:18.793Z,91.32
2023-01-25T10:01:58.865Z,91.28
2023-01-25T10:04:42.251Z,91.30
2023-01-25T10:07:32.475Z,91.20
2023-01-25T10:10:15.835Z,91.03
2023-01-25T10:12:49.025Z,90.92
2023-01-25T10:15:26.063Z,90.64
2023-01-25T10:18:15.521Z,90.61
2023-01-25T10:21:13.952Z,90.47
2023-01-25T10:24:17.866Z,90.32
2023-01-25T10:26:57.981Z,90.08
2023-01-25T10:29:36.000Z,90.21
2023-01-25T10:32:26.553Z,90.11
2023-01-25T10:35:02.339Z,89.74
2023-01-25T10:37:36.159Z,89.42
2023-01-25T10:40:20.705Z,89.28
2023-01-25T10:43:16.288Z,89.00
2023-01-25T10:45:50.498Z,88.82
2023-01-25T10:48:35.936Z,88.56
2023-01-25T10:51:11.697Z,87.99
2023-01-25T10:53:44.619Z,87.81
2023-01-25T10:56:25.088Z,87.27
2023-01-25T10:59:17.072Z,86.84
2023-01-25T11:01:49.899Z,86.55
2023-01-25T11:04:36.328Z,85.73
2023-01-25T11:07:14.177Z,85.55
2023-01-25T11:09:47.939Z,85.07
2023-01-25T11:12:22.406Z,84.90
2023-01-25T11:14:54.516Z,84.69
2023-01-25T11:17:32.073Z,84.06
2023-01-25T11:20:21.961Z,83.27
2023-01-25T11:22:57.772Z,83.23
2023-01-25T11:25:34.166Z,82.77
2023-01-25T11:28:23.516Z,82.12
2023-01-25T11:30:56.415Z,81.87
2023-01-25T11:33:30.700Z,81.58
2023-01-25T11:36:30.873Z,80.61
2023-01-25T11:39:17.098Z,80.56
2023-01-25T11:42:09.719Z,80.32
2023-01-25T11:45:08.125Z,79.98
2023-01-25T11:47:57.657Z,79.50
2023-01-25T11:50:49.050Z,78.94
2023-01-25T11:53:35.951Z,78.23
2023-01-25T11:56:31.856Z,77.94
2023-01-25T11:59:30.532Z,77.94
2023-01-25T12:02:48.924Z,77.97
2023-01-25T12:05:29.200Z,77.67
2023-01-25T12:08:18.622Z,77.33
2023-01-25T12:11:07.790Z,77.10
2023-01-25T12:13:51.483Z,76.47
2023-01-25T12:16:49.909Z,76.21
2023-01-25T12:19:56.313Z,75.73
2023-01-25T12:22:51.614Z,75.29
2023-01-25T12:25:44.066Z,74.41
2023-01-25T12:28:41.763Z,74.38
2023-01-25T12:31:30.732Z,74.34
2023-01-25T12:34:30.074Z,73.96
2023-01-25T12:37:07.602Z,73.72
2023-01-25T12:39:44.779Z,73.79
2023-01-25T12:42:43.680Z,73.93
2023-01-25T12:45:23.872Z,74.14
2023-01-25T12:48:03.980Z,74.43
2023-01-25T12:50:43.035Z,73.47
2023-01-25T12:53:33.256Z,73.33
2023-01-25T12:56:09.843Z,73.17
2023-01-25T12:58:54.991Z,73.10
2023-01-25T13:01:44.214Z,73.12
2023-01-25T13:04:57.308Z,73.13
2023-01-25T13:08:09.311Z,73.24
2023-01-25T13:10:49.768Z,72.81
2023-01-25T13:13:30.104Z,72.31
2023-01-25T13:16:27.100Z,72.04
2023-01-25T13:19:00.646Z,72.12
2023-01-25T13:21:46.688Z,72.10
2023-01-25T13:24:25.744Z,72.09
2023-01-25T13:27:02.793Z,71.97
2023-01-25T13:29:43.144Z,72.02
2023-01-25T13:32:36.539Z,72.04
2023-01-25T13:35:14.271Z,72.08
2023-01-25T13:37:47.107Z,72.19
2023-01-25T13:40:37.535Z,72.16
2023-01-25T13:43:22.733Z,72.15
2023-01-25T13:45:55.985Z,72.03
2023-01-25T13:48:32.075Z,71.99
2023-01-25T13:51:08.674Z,71.93
2023-01-25T13:53:41.740Z,72.16
2023-01-25T13:56:36.004Z,72.25
2023-01-25T13:59:24.759Z,72.33
2023-01-25T14:01:58.304Z,72.36
2023-01-25T14:04:32.301Z,72.28
2023-01-25T14:07:07.846Z,72.43
2023-01-25T14:09:44.057Z,72.50
2023-01-25T14:12:30.410Z,72.61
2023-01-25T14:15:22.708Z,72.70
2023-01-25T14:18:19.408Z,72.85
2023-01-25T14:20:53.920Z,73.02
2023-01-25T14:23:34.378Z,73.06
2023-01-25T14:26:25.584Z,73.20
2023-01-25T14:29:01.985Z,73.35
2023-01-25T14:31:38.802Z,73.52
2023-01-25T14:34:19.034Z,73.69
2023-01-25T14:37:08.848Z,73.85
2023-01-25T14:39:42.323Z,73.94
2023-01-25T14:42:16.332Z,74.06
2023-01-25T14:44:49.947Z,74.12
2023-01-25T14:47:32.982Z,74.20
2023-01-25T14:50:40.521Z,74.28
2023-01-25T14:53:25.008Z,74.46
2023-01-25T14:55:57.852Z,74.54
2023-01-25T14:58:32.368Z,74.69
2023-01-25T15:01:06.021Z,74.75
2023-01-25T15:03:42.751Z,74.92
2023-01-25T15:06:16.075Z,75.06
2023-01-25T15:08:51.941Z,75.24
2023-01-25T15:11:38.539Z,75.43
2023-01-25T15:14:22.353Z,75.63
2023-01-25T15:16:56.457Z,75.68
2023-01-25T15:19:32.534Z,75.69
2023-01-25T15:22:06.341Z,75.75
2023-01-25T15:24:40.570Z,75.90
2023-01-25T15:27:12.958Z,76.00
2023-01-25T15:29:47.089Z,76.15
2023-01-25T15:32:22.877Z,76.23
2023-01-25T15:34:55.614Z,76.36
2023-01-25T15:37:28.778Z,76.54
2023-01-25T15:40:01.966Z,76.66
2023-01-25T15:42:36.350Z,76.73
2023-01-25T15:45:12.148Z,76.89
2023-01-25T15:47:46.698Z,76.96
2023-01-25T15:50:21.896Z,77.09
2023-01-25T15:52:54.921Z,77.13
2023-01-25T15:55:27.983Z,77.19
2023-01-25T15:58:01.203Z,77.17
2023-01-25T16:00:34.360Z,77.30
2023-01-25T16:03:08.122Z,77.42
2023-01-25T16:05:41.462Z,77.47
2023-01-25T16:08:19.617Z,77.52
2023-01-25T16:10:52.569Z,77.56
2023-01-25T16:13:26.424Z,77.56
2023-01-25T16:16:00.759Z,77.54
2023-01-25T16:18:33.909Z,77.59
2023-01-25T16:21:07.059Z,77.70
2023-01-25T16:23:40.683Z,77.84
2023-01-25T16:26:30.150Z,77.94
2023-01-25T16:29:03.111Z,78.13
2023-01-25T16:31:36.381Z,78.47
2023-01-25T16:34:09.716Z,78.85
2023-01-25T16:36:42.681Z,79.11
2023-01-25T16:39:28.445Z,79.43
2023-01-25T16:42:01.405Z,79.66
2023-01-25T16:44:34.956Z,80.55
2023-01-25T16:47:08.738Z,80.55
2023-01-25T16:49:42.279Z,80.47
2023-01-25T16:52:15.361Z,80.42
2023-01-25T16:54:48.587Z,80.64
2023-01-25T16:57:21.583Z,80.88
2023-01-25T16:59:54.501Z,80.93
2023-01-25T17:02:28.197Z,80.94
2023-01-25T17:05:01.422Z,80.83
2023-01-25T17:07:34.963Z,80.93
2023-01-25T17:10:09.709Z,81.09
2023-01-25T17:12:43.485Z,81.15
2023-01-25T17:15:18.249Z,81.15
2023-01-25T17:17:51.482Z,81.16
2023-01-25T17:20:24.344Z,81.12
2023-01-25T17:22:57.375Z,81.19
2023-01-25T17:25:31.920Z,81.42
2023-01-25T17:28:05.552Z,81.35
2023-01-25T17:30:41.910Z,81.29
2023-01-25T17:33:16.497Z,81.33
2023-01-25T17:35:49.500Z,81.35
2023-01-25T17:38:22.579Z,81.46
2023-01-25T17:40:55.826Z,81.39
2023-01-25T17:43:29.294Z,81.21
2023-01-25T17:46:15.240Z,81.11
2023-01-25T17:48:48.647Z,81.21
2023-01-25T17:51:24.992Z,81.31
2023-01-25T17:53:59.109Z,81.38
2023-01-25T17:56:32.633Z,81.37
2023-01-25T17:59:07.147Z,81.27
2023-01-25T18:01:43.184Z,81.16
2023-01-25T18:04:17.945Z,81.05
2023-01-25T18:06:51.412Z,80.86
2023-01-25T18:09:25.867Z,80.69
2023-01-25T18:11:57.882Z,80.63
2023-01-25T18:14:31.712Z,80.53
2023-01-25T18:17:05.012Z,80.29
2023-01-25T18:19:38.627Z,80.20
2023-01-25T18:22:11.412Z,80.08
2023-01-25T18:24:45.424Z,80.12
2023-01-25T18:27:24.722Z,79.99
2023-01-25T18:30:21.004Z,79.74
2023-01-25T18:32:53.901Z,79.59
2023-01-25T18:35:26.971Z,79.51
2023-01-25T18:38:01.482Z,79.31
2023-01-25T18:40:34.471Z,79.19
2023-01-25T18:43:08.170Z,79.06
2023-01-25T18:45:41.953Z,79.00
2023-01-25T18:48:16.521Z,78.91
2023-01-25T18:50:49.421Z,78.79
2023-01-25T18:53:22.394Z,78.70
2023-01-25T18:56:11.624Z,78.69
2023-01-25T18:58:45.389Z,78.49
2023-01-25T19:01:21.667Z,78.39
2023-01-25T19:03:55.071Z,78.24
2023-01-25T19:06:28.018Z,78.26
2023-01-25T19:09:02.194Z,77.99
2023-01-25T19:11:34.332Z,77.82
2023-01-25T19:14:07.665Z,77.65
2023-01-25T19:16:40.540Z,77.61
2023-01-25T19:19:13.381Z,77.52
2023-01-25T19:21:46.372Z,77.45
2023-01-25T19:24:21.060Z,77.25
2023-01-25T19:26:54.571Z,77.10
2023-01-25T19:29:27.261Z,77.04
2023-01-25T19:32:00.542Z,77.01
2023-01-25T19:34:33.904Z,77.02
2023-01-25T19:37:07.426Z,76.92
2023-01-25T19:39:40.456Z,76.84
2023-01-25T19:42:13.538Z,76.85
2023-01-25T19:44:46.639Z,76.81
2023-01-25T19:47:19.377Z,76.79
2023-01-25T19:49:52.288Z,76.69
2023-01-25T19:52:25.675Z,76.69
2023-01-25T19:54:58.579Z,76.56
2023-01-25T19:57:33.019Z,76.49
2023-01-25T20:00:07.571Z,76.41
2023-01-25T20:02:40.924Z,76.30
2023-01-25T20:05:14.360Z,76.26
2023-01-25T20:07:47.251Z,76.36
2023-01-25T20:10:20.482Z,76.32
2023-01-25T20:12:53.431Z,76.17
2023-01-25T20:15:26.292Z,76.07
2023-01-25T20:17:59.712Z,75.98
2023-01-25T20:20:33.251Z,75.84
2023-01-25T20:23:06.075Z,75.78
2023-01-25T20:25:39.356Z,75.60
2023-01-25T20:28:12.570Z,75.61
2023-01-25T20:30:45.594Z,75.50
2023-01-25T20:33:19.052Z,75.28
2023-01-25T20:35:52.078Z,74.97
2023-01-25T20:38:24.958Z,74.94
2023-01-25T20:41:02.774Z,74.85
2023-01-25T20:43:36.026Z,74.61
2023-01-25T20:46:09.208Z,74.61
2023-01-25T20:48:42.041Z,74.42
2023-01-25T20:51:17.304Z,74.28
2023-01-25T20:53:54.170Z,74.30
2023-01-25T20:56:27.527Z,74.08
2023-01-25T20:59:00.289Z,73.92
2023-01-25T21:01:36.718Z,73.85
2023-01-25T21:04:11.875Z,73.79
2023-01-25T21:06:45.057Z,73.84
2023-01-25T21:09:19.397Z,73.63
2023-01-25T21:11:52.452Z,73.54
2023-01-25T21:14:25.183Z,73.67
2023-01-25T21:16:58.135Z,73.54
2023-01-25T21:19:31.105Z,73.44
2023-01-25T21:22:03.957Z,73.40
2023-01-25T21:24:36.950Z,73.47
2023-01-25T21:27:09.763Z,73.50
2023-01-25T21:29:42.711Z,73.52
2023-01-25T21:32:15.617Z,73.49
2023-01-25T21:34:48.661Z,73.54
2023-01-25T21:37:22.687Z,73.53
2023-01-25T21:39:55.837Z,73.54
2023-01-25T21:42:30.374Z,73.53
2023-01-25T21:45:21.454Z,73.50
2023-01-25T21:47:56.079Z,73.52
2023-01-25T21:50:46.641Z,73.62
2023-01-25T21:53:19.445Z,73.60
2023-01-25T21:55:58.579Z,73.53
2023-01-25T21:58:31.448Z,73.53
2023-01-25T22:01:05.048Z,73.56
2023-01-25T22:03:38.372Z,73.61
2023-01-25T22:06:11.145Z,73.79
2023-01-25T22:08:44.507Z,73.79
2023-01-25T22:11:17.306Z,73.76
2023-01-25T22:13:50.229Z,73.82
2023-01-25T22:16:23.180Z,73.86
2023-01-25T22:18:56.648Z,73.86
2023-01-25T22:21:33.005Z,74.03
2023-01-25T22:24:07.969Z,73.99
2023-01-25T22:27:28.088Z,73.94
2023-01-25T22:30:00.852Z,73.98
2023-01-25T22:32:33.956Z,74.10
2023-01-25T22:35:07.249Z,74.17
2023-01-25T22:37:40.091Z,74.31
2023-01-25T22:40:14.474Z,74.41
2023-01-25T22:42:47.827Z,74.41
2023-01-25T22:45:20.758Z,74.47
2023-01-25T22:47:53.860Z,74.55
2023-01-25T22:50:27.113Z,74.57
2023-01-25T22:52:59.967Z,74.64
2023-01-25T22:55:34.508Z,74.71
2023-01-25T22:58:07.401Z,74.85
2023-01-25T23:00:40.727Z,75.00
2023-01-25T23:03:13.504Z,74.94
2023-01-25T23:05:46.382Z,75.01
2023-01-25T23:08:19.206Z,75.17
2023-01-25T23:10:52.620Z,75.26
2023-01-25T23:13:25.465Z,75.41
2023-01-25T23:16:03.660Z,75.41
2023-01-25T23:18:53.710Z,75.47
2023-01-25T23:21:29.141Z,75.54
2023-01-25T23:24:03.329Z,75.60
2023-01-25T23:26:42.567Z,75.63
2023-01-25T23:29:16.138Z,75.72
2023-01-25T23:31:49.443Z,75.72
2023-01-25T23:34:22.176Z,75.81
2023-01-25T23:36:55.559Z,75.92
2023-01-25T23:39:28.255Z,76.00
2023-01-25T23:42:01.046Z,76.07
2023-01-25T23:44:33.890Z,76.11
2023-01-25T23:47:07.272Z,76.17
2023-01-25T23:49:40.361Z,76.17
2023-01-25T23:52:13.158Z,76.24
2023-01-25T23:54:45.956Z,76.34
2023-01-25T23:57:19.077Z,76.42
2023-01-25T23:59:51.919Z,76.55
